sensor_id;sensor_type;location;lat;lon;timestamp;P1;durP1;ratioP1;P2;durP2;ratioP2
23001;SDS011;11667;51.706;4.856;2023-05-23T00:00:26;19.57;;;9.68;;
23001;SDS011;11667;51.706;4.856;2023-05-23T00:02:55;19.70;;;9.08;;
23001;SDS011;11667;51.706;4.856;2023-05-23T00:05:24;19.00;;;9.53;;
23001;SDS011;11667;51.706;4.856;2023-05-23T00:07:55;19.27;;;9.65;;
23001;SDS011;11667;51.706;4.856;2023-05-23T00:10:25;20.32;;;9.85;;
23001;SDS011;11667;51.706;4.856;2023-05-23T00:12:54;19.62;;;10.03;;
23001;SDS011;11667;51.706;4.856;2023-05-23T00:15:24;17.57;;;9.43;;
23001;SDS011;11667;51.706;4.856;2023-05-23T00:17:54;22.67;;;10.35;;
23001;SDS011;11667;51.706;4.856;2023-05-23T00:20:23;24.50;;;10.78;;
23001;SDS011;11667;51.706;4.856;2023-05-23T00:22:53;22.58;;;11.05;;
23001;SDS011;11667;51.706;4.856;2023-05-23T00:25:24;29.05;;;11.70;;
23001;SDS011;11667;51.706;4.856;2023-05-23T00:27:55;31.20;;;12.25;;
23001;SDS011;11667;51.706;4.856;2023-05-23T00:30:24;29.40;;;12.45;;
23001;SDS011;11667;51.706;4.856;2023-05-23T00:32:54;28.57;;;11.45;;
23001;SDS011;11667;51.706;4.856;2023-05-23T00:35:24;24.35;;;11.70;;
23001;SDS011;11667;51.706;4.856;2023-05-23T00:37:54;26.60;;;11.50;;
23001;SDS011;11667;51.706;4.856;2023-05-23T00:40:23;22.02;;;10.40;;
23001;SDS011;11667;51.706;4.856;2023-05-23T00:42:53;26.30;;;11.18;;
23001;SDS011;11667;51.706;4.856;2023-05-23T00:45:22;26.55;;;11.48;;
23001;SDS011;11667;51.706;4.856;2023-05-23T00:47:52;25.32;;;11.53;;
23001;SDS011;11667;51.706;4.856;2023-05-23T00:50:22;23.22;;;10.23;;
23001;SDS011;11667;51.706;4.856;2023-05-23T00:52:51;25.70;;;11.50;;
23001;SDS011;11667;51.706;4.856;2023-05-23T00:55:21;25.77;;;11.22;;
23001;SDS011;11667;51.706;4.856;2023-05-23T00:57:52;23.57;;;10.32;;
23001;SDS011;11667;51.706;4.856;2023-05-23T01:00:25;20.37;;;10.40;;
23001;SDS011;11667;51.706;4.856;2023-05-23T01:02:55;22.95;;;10.05;;
23001;SDS011;11667;51.706;4.856;2023-05-23T01:05:25;22.48;;;9.95;;
23001;SDS011;11667;51.706;4.856;2023-05-23T01:07:54;26.35;;;11.38;;
23001;SDS011;11667;51.706;4.856;2023-05-23T01:10:29;20.52;;;9.55;;
23001;SDS011;11667;51.706;4.856;2023-05-23T01:13:09;21.93;;;9.63;;
23001;SDS011;11667;51.706;4.856;2023-05-23T01:19:13;16.65;;;8.48;;
23001;SDS011;11667;51.706;4.856;2023-05-23T01:21:38;16.35;;;8.23;;
23001;SDS011;11667;51.706;4.856;2023-05-23T01:29:42;20.02;;;7.90;;
23001;SDS011;11667;51.706;4.856;2023-05-23T01:32:14;19.87;;;8.15;;
23001;SDS011;11667;51.706;4.856;2023-05-23T01:34:44;19.82;;;8.43;;
23001;SDS011;11667;51.706;4.856;2023-05-23T01:37:14;17.62;;;8.80;;
23001;SDS011;11667;51.706;4.856;2023-05-23T01:39:45;16.05;;;8.20;;
23001;SDS011;11667;51.706;4.856;2023-05-23T01:42:15;16.95;;;8.03;;
23001;SDS011;11667;51.706;4.856;2023-05-23T01:44:45;19.30;;;8.48;;
23001;SDS011;11667;51.706;4.856;2023-05-23T01:47:14;19.05;;;8.50;;
23001;SDS011;11667;51.706;4.856;2023-05-23T01:49:44;19.02;;;8.98;;
23001;SDS011;11667;51.706;4.856;2023-05-23T01:52:14;21.37;;;9.28;;
23001;SDS011;11667;51.706;4.856;2023-05-23T01:54:44;19.40;;;8.78;;
23001;SDS011;11667;51.706;4.856;2023-05-23T01:57:15;23.30;;;9.65;;
23001;SDS011;11667;51.706;4.856;2023-05-23T01:59:47;18.60;;;9.60;;
23001;SDS011;11667;51.706;4.856;2023-05-23T02:02:16;25.77;;;11.18;;
23001;SDS011;11667;51.706;4.856;2023-05-23T02:04:47;26.07;;;10.98;;
23001;SDS011;11667;51.706;4.856;2023-05-23T02:07:17;24.15;;;11.05;;
23001;SDS011;11667;51.706;4.856;2023-05-23T02:09:49;20.40;;;11.18;;
23001;SDS011;11667;51.706;4.856;2023-05-23T02:12:18;22.52;;;10.60;;
23001;SDS011;11667;51.706;4.856;2023-05-23T02:14:48;20.23;;;10.20;;
23001;SDS011;11667;51.706;4.856;2023-05-23T02:17:20;21.42;;;10.40;;
23001;SDS011;11667;51.706;4.856;2023-05-23T02:19:51;22.27;;;9.80;;
23001;SDS011;11667;51.706;4.856;2023-05-23T02:22:23;17.52;;;8.60;;
23001;SDS011;11667;51.706;4.856;2023-05-23T02:24:52;16.30;;;8.48;;
23001;SDS011;11667;51.706;4.856;2023-05-23T02:27:22;12.78;;;7.42;;
23001;SDS011;11667;51.706;4.856;2023-05-23T02:29:51;12.82;;;7.05;;
23001;SDS011;11667;51.706;4.856;2023-05-23T02:32:21;16.23;;;7.58;;
23001;SDS011;11667;51.706;4.856;2023-05-23T02:34:51;14.78;;;7.45;;
23001;SDS011;11667;51.706;4.856;2023-05-23T02:37:22;16.55;;;8.13;;
23001;SDS011;11667;51.706;4.856;2023-05-23T02:39:52;17.65;;;8.63;;
23001;SDS011;11667;51.706;4.856;2023-05-23T02:42:21;19.82;;;10.90;;
23001;SDS011;11667;51.706;4.856;2023-05-23T02:44:51;18.87;;;10.50;;
23001;SDS011;11667;51.706;4.856;2023-05-23T02:47:21;24.72;;;10.82;;
23001;SDS011;11667;51.706;4.856;2023-05-23T02:49:51;25.95;;;11.00;;
23001;SDS011;11667;51.706;4.856;2023-05-23T02:52:20;22.40;;;11.45;;
23001;SDS011;11667;51.706;4.856;2023-05-23T02:54:50;21.48;;;10.80;;
23001;SDS011;11667;51.706;4.856;2023-05-23T02:57:20;20.60;;;10.72;;
23001;SDS011;11667;51.706;4.856;2023-05-23T02:59:49;25.95;;;10.50;;
23001;SDS011;11667;51.706;4.856;2023-05-23T03:02:19;23.75;;;9.95;;
23001;SDS011;11667;51.706;4.856;2023-05-23T03:04:48;23.35;;;10.28;;
23001;SDS011;11667;51.706;4.856;2023-05-23T03:07:17;23.27;;;9.90;;
23001;SDS011;11667;51.706;4.856;2023-05-23T03:09:50;20.72;;;9.55;;
23001;SDS011;11667;51.706;4.856;2023-05-23T03:12:19;20.70;;;9.68;;
23001;SDS011;11667;51.706;4.856;2023-05-23T03:14:48;22.22;;;8.95;;
23001;SDS011;11667;51.706;4.856;2023-05-23T03:17:18;23.10;;;8.68;;
23001;SDS011;11667;51.706;4.856;2023-05-23T03:19:47;20.02;;;8.83;;
23001;SDS011;11667;51.706;4.856;2023-05-23T03:22:17;20.10;;;8.43;;
23001;SDS011;11667;51.706;4.856;2023-05-23T03:24:47;22.45;;;8.85;;
23001;SDS011;11667;51.706;4.856;2023-05-23T03:27:16;18.05;;;8.65;;
23001;SDS011;11667;51.706;4.856;2023-05-23T03:29:45;18.80;;;8.40;;
23001;SDS011;11667;51.706;4.856;2023-05-23T03:32:15;16.85;;;7.50;;
23001;SDS011;11667;51.706;4.856;2023-05-23T03:34:44;17.65;;;8.05;;
23001;SDS011;11667;51.706;4.856;2023-05-23T03:37:15;17.73;;;7.62;;
23001;SDS011;11667;51.706;4.856;2023-05-23T03:39:44;18.00;;;7.75;;
23001;SDS011;11667;51.706;4.856;2023-05-23T03:42:14;17.75;;;7.62;;
23001;SDS011;11667;51.706;4.856;2023-05-23T03:44:45;18.35;;;7.67;;
23001;SDS011;11667;51.706;4.856;2023-05-23T03:47:14;20.68;;;8.05;;
23001;SDS011;11667;51.706;4.856;2023-05-23T03:49:44;21.10;;;7.85;;
23001;SDS011;11667;51.706;4.856;2023-05-23T03:52:14;21.80;;;7.83;;
23001;SDS011;11667;51.706;4.856;2023-05-23T03:54:44;18.30;;;7.87;;
23001;SDS011;11667;51.706;4.856;2023-05-23T03:57:14;20.88;;;7.83;;
23001;SDS011;11667;51.706;4.856;2023-05-23T03:59:44;19.77;;;7.03;;
23001;SDS011;11667;51.706;4.856;2023-05-23T04:02:14;19.80;;;7.92;;
23001;SDS011;11667;51.706;4.856;2023-05-23T04:04:43;19.50;;;7.10;;
23001;SDS011;11667;51.706;4.856;2023-05-23T04:07:13;17.70;;;6.50;;
23001;SDS011;11667;51.706;4.856;2023-05-23T04:09:43;16.23;;;6.50;;
23001;SDS011;11667;51.706;4.856;2023-05-23T04:12:13;13.62;;;5.90;;
23001;SDS011;11667;51.706;4.856;2023-05-23T04:14:42;16.12;;;5.87;;
23001;SDS011;11667;51.706;4.856;2023-05-23T04:17:13;22.15;;;5.37;;
23001;SDS011;11667;51.706;4.856;2023-05-23T04:19:43;18.32;;;6.67;;
23001;SDS011;11667;51.706;4.856;2023-05-23T04:22:13;14.58;;;5.83;;
23001;SDS011;11667;51.706;4.856;2023-05-23T04:24:44;16.52;;;5.92;;
23001;SDS011;11667;51.706;4.856;2023-05-23T04:27:13;14.87;;;5.87;;
23001;SDS011;11667;51.706;4.856;2023-05-23T04:29:44;16.77;;;6.28;;
23001;SDS011;11667;51.706;4.856;2023-05-23T04:32:14;16.95;;;5.95;;
23001;SDS011;11667;51.706;4.856;2023-05-23T04:34:46;17.87;;;5.47;;
23001;SDS011;11667;51.706;4.856;2023-05-23T04:37:17;13.32;;;5.92;;
23001;SDS011;11667;51.706;4.856;2023-05-23T04:39:52;15.68;;;6.15;;
23001;SDS011;11667;51.706;4.856;2023-05-23T04:42:25;14.58;;;5.95;;
23001;SDS011;11667;51.706;4.856;2023-05-23T04:44:57;16.82;;;7.10;;
23001;SDS011;11667;51.706;4.856;2023-05-23T04:47:45;16.10;;;7.45;;
23001;SDS011;11667;51.706;4.856;2023-05-23T04:50:19;18.12;;;7.47;;
23001;SDS011;11667;51.706;4.856;2023-05-23T04:52:49;15.05;;;7.72;;
23001;SDS011;11667;51.706;4.856;2023-05-23T04:55:18;17.73;;;8.28;;
23001;SDS011;11667;51.706;4.856;2023-05-23T04:57:48;18.42;;;7.28;;
23001;SDS011;11667;51.706;4.856;2023-05-23T05:00:18;16.60;;;7.92;;
23001;SDS011;11667;51.706;4.856;2023-05-23T05:02:49;16.67;;;7.58;;
23001;SDS011;11667;51.706;4.856;2023-05-23T05:05:19;21.42;;;8.13;;
23001;SDS011;11667;51.706;4.856;2023-05-23T05:07:48;17.70;;;8.05;;
23001;SDS011;11667;51.706;4.856;2023-05-23T05:10:18;19.23;;;8.10;;
23001;SDS011;11667;51.706;4.856;2023-05-23T05:12:48;18.67;;;8.63;;
23001;SDS011;11667;51.706;4.856;2023-05-23T05:15:18;18.32;;;7.30;;
23001;SDS011;11667;51.706;4.856;2023-05-23T05:17:49;14.18;;;6.85;;
23001;SDS011;11667;51.706;4.856;2023-05-23T05:20:20;13.00;;;6.33;;
23001;SDS011;11667;51.706;4.856;2023-05-23T05:22:56;13.75;;;6.45;;
23001;SDS011;11667;51.706;4.856;2023-05-23T05:25:27;15.32;;;6.37;;
23001;SDS011;11667;51.706;4.856;2023-05-23T05:27:59;14.53;;;6.50;;
23001;SDS011;11667;51.706;4.856;2023-05-23T05:30:40;14.13;;;6.37;;
23001;SDS011;11667;51.706;4.856;2023-05-23T05:33:10;11.08;;;5.75;;
23001;SDS011;11667;51.706;4.856;2023-05-23T05:35:40;13.40;;;5.70;;
23001;SDS011;11667;51.706;4.856;2023-05-23T05:38:09;14.07;;;5.35;;
23001;SDS011;11667;51.706;4.856;2023-05-23T05:40:39;12.23;;;5.40;;
23001;SDS011;11667;51.706;4.856;2023-05-23T05:43:09;16.45;;;6.12;;
23001;SDS011;11667;51.706;4.856;2023-05-23T05:45:38;13.08;;;5.58;;
23001;SDS011;11667;51.706;4.856;2023-05-23T05:48:08;14.13;;;5.33;;
23001;SDS011;11667;51.706;4.856;2023-05-23T05:50:39;13.60;;;5.87;;
23001;SDS011;11667;51.706;4.856;2023-05-23T05:53:10;15.10;;;5.60;;
23001;SDS011;11667;51.706;4.856;2023-05-23T05:55:40;11.53;;;5.22;;
23001;SDS011;11667;51.706;4.856;2023-05-23T05:58:10;12.25;;;5.85;;
23001;SDS011;11667;51.706;4.856;2023-05-23T06:00:44;15.65;;;5.97;;
23001;SDS011;11667;51.706;4.856;2023-05-23T06:03:14;13.18;;;5.70;;
23001;SDS011;11667;51.706;4.856;2023-05-23T06:05:45;13.93;;;5.67;;
23001;SDS011;11667;51.706;4.856;2023-05-23T06:08:15;13.43;;;6.00;;
23001;SDS011;11667;51.706;4.856;2023-05-23T06:10:44;15.05;;;6.30;;
23001;SDS011;11667;51.706;4.856;2023-05-23T06:13:13;15.00;;;7.08;;
23001;SDS011;11667;51.706;4.856;2023-05-23T06:15:44;13.40;;;6.60;;
23001;SDS011;11667;51.706;4.856;2023-05-23T06:18:14;15.23;;;7.28;;
23001;SDS011;11667;51.706;4.856;2023-05-23T06:20:44;13.40;;;6.87;;
23001;SDS011;11667;51.706;4.856;2023-05-23T06:23:15;14.93;;;7.47;;
23001;SDS011;11667;51.706;4.856;2023-05-23T06:25:45;19.30;;;7.53;;
23001;SDS011;11667;51.706;4.856;2023-05-23T06:28:15;15.48;;;7.42;;
23001;SDS011;11667;51.706;4.856;2023-05-23T06:30:45;15.45;;;7.42;;
23001;SDS011;11667;51.706;4.856;2023-05-23T06:33:14;14.45;;;6.72;;
23001;SDS011;11667;51.706;4.856;2023-05-23T06:35:44;16.67;;;6.97;;
23001;SDS011;11667;51.706;4.856;2023-05-23T06:38:13;13.50;;;6.72;;
23001;SDS011;11667;51.706;4.856;2023-05-23T06:40:44;18.07;;;7.58;;
23001;SDS011;11667;51.706;4.856;2023-05-23T06:43:14;14.35;;;7.42;;
23001;SDS011;11667;51.706;4.856;2023-05-23T06:45:45;14.25;;;6.92;;
23001;SDS011;11667;51.706;4.856;2023-05-23T06:48:15;12.58;;;5.78;;
23001;SDS011;11667;51.706;4.856;2023-05-23T06:50:46;16.87;;;6.37;;
23001;SDS011;11667;51.706;4.856;2023-05-23T06:53:16;13.88;;;5.30;;
23001;SDS011;11667;51.706;4.856;2023-05-23T06:55:47;15.00;;;5.35;;
23001;SDS011;11667;51.706;4.856;2023-05-23T06:58:18;11.48;;;5.00;;
23001;SDS011;11667;51.706;4.856;2023-05-23T07:00:51;11.88;;;4.92;;
23001;SDS011;11667;51.706;4.856;2023-05-23T07:03:25;14.47;;;5.53;;
23001;SDS011;11667;51.706;4.856;2023-05-23T07:05:56;10.63;;;5.05;;
23001;SDS011;11667;51.706;4.856;2023-05-23T07:08:27;10.95;;;5.45;;
23001;SDS011;11667;51.706;4.856;2023-05-23T07:11:00;16.42;;;4.80;;
23001;SDS011;11667;51.706;4.856;2023-05-23T07:13:37;13.43;;;5.03;;
23001;SDS011;11667;51.706;4.856;2023-05-23T07:16:06;12.40;;;4.78;;
23001;SDS011;11667;51.706;4.856;2023-05-23T07:18:38;11.00;;;4.55;;
23001;SDS011;11667;51.706;4.856;2023-05-23T07:21:08;12.30;;;4.67;;
23001;SDS011;11667;51.706;4.856;2023-05-23T07:23:39;12.73;;;4.37;;
23001;SDS011;11667;51.706;4.856;2023-05-23T07:26:09;12.43;;;4.70;;
23001;SDS011;11667;51.706;4.856;2023-05-23T07:28:40;8.90;;;4.40;;
23001;SDS011;11667;51.706;4.856;2023-05-23T07:31:10;11.60;;;4.17;;
23001;SDS011;11667;51.706;4.856;2023-05-23T07:33:41;8.78;;;4.05;;
23001;SDS011;11667;51.706;4.856;2023-05-23T07:36:12;10.15;;;4.12;;
23001;SDS011;11667;51.706;4.856;2023-05-23T07:38:41;9.55;;;3.70;;
23001;SDS011;11667;51.706;4.856;2023-05-23T07:41:11;9.58;;;3.45;;
23001;SDS011;11667;51.706;4.856;2023-05-23T07:43:40;7.78;;;3.67;;
23001;SDS011;11667;51.706;4.856;2023-05-23T07:46:09;8.75;;;3.90;;
23001;SDS011;11667;51.706;4.856;2023-05-23T07:48:39;8.15;;;2.77;;
23001;SDS011;11667;51.706;4.856;2023-05-23T07:51:11;6.67;;;2.70;;
23001;SDS011;11667;51.706;4.856;2023-05-23T07:53:40;4.50;;;2.22;;
23001;SDS011;11667;51.706;4.856;2023-05-23T07:56:10;3.72;;;2.05;;
23001;SDS011;11667;51.706;4.856;2023-05-23T07:58:41;7.05;;;2.50;;
23001;SDS011;11667;51.706;4.856;2023-05-23T08:01:10;4.75;;;2.05;;
23001;SDS011;11667;51.706;4.856;2023-05-23T08:04:00;6.55;;;2.10;;
23001;SDS011;11667;51.706;4.856;2023-05-23T08:06:32;5.33;;;2.30;;
23001;SDS011;11667;51.706;4.856;2023-05-23T08:09:03;9.83;;;2.67;;
23001;SDS011;11667;51.706;4.856;2023-05-23T08:11:35;6.00;;;2.27;;
23001;SDS011;11667;51.706;4.856;2023-05-23T08:14:05;5.40;;;2.30;;
23001;SDS011;11667;51.706;4.856;2023-05-23T08:16:38;6.08;;;2.40;;
23001;SDS011;11667;51.706;4.856;2023-05-23T08:19:10;7.17;;;2.20;;
23001;SDS011;11667;51.706;4.856;2023-05-23T08:21:39;8.50;;;2.15;;
23001;SDS011;11667;51.706;4.856;2023-05-23T08:24:10;5.85;;;2.05;;
23001;SDS011;11667;51.706;4.856;2023-05-23T08:26:42;7.53;;;2.00;;
23001;SDS011;11667;51.706;4.856;2023-05-23T08:29:12;5.90;;;1.90;;
23001;SDS011;11667;51.706;4.856;2023-05-23T08:31:44;6.45;;;1.92;;
23001;SDS011;11667;51.706;4.856;2023-05-23T08:34:13;8.15;;;2.67;;
23001;SDS011;11667;51.706;4.856;2023-05-23T08:36:42;8.65;;;2.58;;
23001;SDS011;11667;51.706;4.856;2023-05-23T08:39:14;7.08;;;1.92;;
23001;SDS011;11667;51.706;4.856;2023-05-23T08:41:45;6.53;;;1.92;;
23001;SDS011;11667;51.706;4.856;2023-05-23T08:44:14;7.00;;;2.15;;
23001;SDS011;11667;51.706;4.856;2023-05-23T08:46:45;8.10;;;2.00;;
23001;SDS011;11667;51.706;4.856;2023-05-23T08:49:27;10.43;;;2.40;;
23001;SDS011;11667;51.706;4.856;2023-05-23T08:51:57;7.62;;;2.17;;
23001;SDS011;11667;51.706;4.856;2023-05-23T08:54:30;6.95;;;2.10;;
23001;SDS011;11667;51.706;4.856;2023-05-23T08:57:00;10.15;;;2.35;;
23001;SDS011;11667;51.706;4.856;2023-05-23T08:59:32;8.45;;;2.67;;
23001;SDS011;11667;51.706;4.856;2023-05-23T09:02:03;5.58;;;2.05;;
23001;SDS011;11667;51.706;4.856;2023-05-23T09:04:35;9.38;;;2.25;;
23001;SDS011;11667;51.706;4.856;2023-05-23T09:07:13;7.30;;;1.87;;
23001;SDS011;11667;51.706;4.856;2023-05-23T09:09:44;7.70;;;2.20;;
23001;SDS011;11667;51.706;4.856;2023-05-23T09:12:15;5.47;;;1.75;;
23001;SDS011;11667;51.706;4.856;2023-05-23T09:14:47;9.23;;;3.02;;
23001;SDS011;11667;51.706;4.856;2023-05-23T09:17:17;9.55;;;2.27;;
23001;SDS011;11667;51.706;4.856;2023-05-23T09:19:47;10.23;;;2.20;;
23001;SDS011;11667;51.706;4.856;2023-05-23T09:22:24;9.05;;;2.35;;
23001;SDS011;11667;51.706;4.856;2023-05-23T09:24:59;6.72;;;2.27;;
23001;SDS011;11667;51.706;4.856;2023-05-23T09:27:28;7.08;;;2.05;;
23001;SDS011;11667;51.706;4.856;2023-05-23T09:29:58;10.58;;;2.47;;
23001;SDS011;11667;51.706;4.856;2023-05-23T09:32:35;8.78;;;1.90;;
23001;SDS011;11667;51.706;4.856;2023-05-23T09:35:05;9.23;;;2.10;;
23001;SDS011;11667;51.706;4.856;2023-05-23T09:37:38;6.20;;;2.02;;
23001;SDS011;11667;51.706;4.856;2023-05-23T09:40:11;10.05;;;2.35;;
23001;SDS011;11667;51.706;4.856;2023-05-23T09:42:44;7.08;;;1.95;;
23001;SDS011;11667;51.706;4.856;2023-05-23T09:45:15;9.30;;;2.42;;
23001;SDS011;11667;51.706;4.856;2023-05-23T09:47:48;11.28;;;2.20;;
23001;SDS011;11667;51.706;4.856;2023-05-23T09:50:19;5.22;;;1.85;;
23001;SDS011;11667;51.706;4.856;2023-05-23T09:52:50;9.10;;;2.05;;
23001;SDS011;11667;51.706;4.856;2023-05-23T09:55:21;7.90;;;2.00;;
23001;SDS011;11667;51.706;4.856;2023-05-23T09:57:52;6.33;;;2.00;;
23001;SDS011;11667;51.706;4.856;2023-05-23T10:00:23;4.62;;;1.90;;
23001;SDS011;11667;51.706;4.856;2023-05-23T10:02:54;7.05;;;2.10;;
23001;SDS011;11667;51.706;4.856;2023-05-23T10:05:48;4.62;;;2.00;;
23001;SDS011;11667;51.706;4.856;2023-05-23T10:08:06;6.85;;;2.25;;
23001;SDS011;11667;51.706;4.856;2023-05-23T10:11:41;7.55;;;2.12;;
23001;SDS011;11667;51.706;4.856;2023-05-23T10:13:13;5.90;;;1.92;;
23001;SDS011;11667;51.706;4.856;2023-05-23T10:15:43;6.22;;;1.85;;
23001;SDS011;11667;51.706;4.856;2023-05-23T10:18:15;7.70;;;2.37;;
23001;SDS011;11667;51.706;4.856;2023-05-23T10:20:51;12.20;;;2.00;;
23001;SDS011;11667;51.706;4.856;2023-05-23T10:23:16;6.53;;;1.80;;
23001;SDS011;11667;51.706;4.856;2023-05-23T10:25:47;7.47;;;2.10;;
23001;SDS011;11667;51.706;4.856;2023-05-23T10:28:17;7.15;;;2.35;;
23001;SDS011;11667;51.706;4.856;2023-05-23T10:30:48;6.03;;;1.87;;
23001;SDS011;11667;51.706;4.856;2023-05-23T10:33:17;6.72;;;2.60;;
23001;SDS011;11667;51.706;4.856;2023-05-23T10:36:03;4.87;;;2.10;;
23001;SDS011;11667;51.706;4.856;2023-05-23T10:38:33;4.22;;;1.55;;
23001;SDS011;11667;51.706;4.856;2023-05-23T10:43:53;4.03;;;1.65;;
23001;SDS011;11667;51.706;4.856;2023-05-23T10:49:39;5.05;;;1.85;;
23001;SDS011;11667;51.706;4.856;2023-05-23T10:52:15;5.45;;;1.75;;
23001;SDS011;11667;51.706;4.856;2023-05-23T10:54:50;6.72;;;1.92;;
23001;SDS011;11667;51.706;4.856;2023-05-23T10:57:18;4.62;;;1.50;;
23001;SDS011;11667;51.706;4.856;2023-05-23T10:59:50;5.80;;;1.85;;
23001;SDS011;11667;51.706;4.856;2023-05-23T11:02:24;7.22;;;2.05;;
23001;SDS011;11667;51.706;4.856;2023-05-23T11:10:53;5.78;;;1.60;;
23001;SDS011;11667;51.706;4.856;2023-05-23T11:21:52;5.30;;;1.92;;
23001;SDS011;11667;51.706;4.856;2023-05-23T11:24:24;6.15;;;1.70;;
23001;SDS011;11667;51.706;4.856;2023-05-23T11:27:12;5.47;;;1.80;;
23001;SDS011;11667;51.706;4.856;2023-05-23T11:29:41;4.50;;;1.90;;
23001;SDS011;11667;51.706;4.856;2023-05-23T11:32:11;6.37;;;1.95;;
23001;SDS011;11667;51.706;4.856;2023-05-23T11:34:42;7.03;;;2.13;;
23001;SDS011;11667;51.706;4.856;2023-05-23T11:37:15;6.17;;;2.02;;
23001;SDS011;11667;51.706;4.856;2023-05-23T11:39:44;6.58;;;2.02;;
23001;SDS011;11667;51.706;4.856;2023-05-23T11:42:14;6.85;;;1.82;;
23001;SDS011;11667;51.706;4.856;2023-05-23T11:44:47;12.20;;;2.37;;
23001;SDS011;11667;51.706;4.856;2023-05-23T11:47:17;4.47;;;1.90;;
23001;SDS011;11667;51.706;4.856;2023-05-23T11:49:48;4.30;;;2.05;;
23001;SDS011;11667;51.706;4.856;2023-05-23T11:52:17;6.45;;;1.90;;
23001;SDS011;11667;51.706;4.856;2023-05-23T11:54:46;10.05;;;2.10;;
23001;SDS011;11667;51.706;4.856;2023-05-23T11:57:16;8.40;;;2.08;;
23001;SDS011;11667;51.706;4.856;2023-05-23T11:59:45;6.58;;;1.92;;
23001;SDS011;11667;51.706;4.856;2023-05-23T12:02:15;9.05;;;1.92;;
23001;SDS011;11667;51.706;4.856;2023-05-23T12:04:44;5.55;;;2.15;;
23001;SDS011;11667;51.706;4.856;2023-05-23T12:07:13;4.35;;;1.72;;
23001;SDS011;11667;51.706;4.856;2023-05-23T12:09:58;6.85;;;2.10;;
23001;SDS011;11667;51.706;4.856;2023-05-23T12:12:27;7.17;;;2.27;;
23001;SDS011;11667;51.706;4.856;2023-05-23T12:14:58;5.10;;;1.75;;
23001;SDS011;11667;51.706;4.856;2023-05-23T12:17:29;6.80;;;1.80;;
23001;SDS011;11667;51.706;4.856;2023-05-23T12:19:59;5.95;;;2.00;;
23001;SDS011;11667;51.706;4.856;2023-05-23T12:22:30;7.03;;;1.85;;
23001;SDS011;11667;51.706;4.856;2023-05-23T12:25:00;5.22;;;2.00;;
23001;SDS011;11667;51.706;4.856;2023-05-23T12:27:33;5.55;;;1.85;;
23001;SDS011;11667;51.706;4.856;2023-05-23T12:30:07;7.12;;;2.62;;
23001;SDS011;11667;51.706;4.856;2023-05-23T12:32:43;5.50;;;1.85;;
23001;SDS011;11667;51.706;4.856;2023-05-23T12:35:16;6.83;;;1.98;;
23001;SDS011;11667;51.706;4.856;2023-05-23T12:37:45;7.10;;;2.22;;
23001;SDS011;11667;51.706;4.856;2023-05-23T12:40:15;6.42;;;1.98;;
23001;SDS011;11667;51.706;4.856;2023-05-23T12:42:52;5.12;;;1.92;;
23001;SDS011;11667;51.706;4.856;2023-05-23T12:45:31;7.42;;;2.00;;
23001;SDS011;11667;51.706;4.856;2023-05-23T12:48:03;5.87;;;2.20;;
23001;SDS011;11667;51.706;4.856;2023-05-23T12:50:35;8.00;;;2.13;;
23001;SDS011;11667;51.706;4.856;2023-05-23T12:53:05;11.57;;;2.30;;
23001;SDS011;11667;51.706;4.856;2023-05-23T12:55:35;7.45;;;2.20;;
23001;SDS011;11667;51.706;4.856;2023-05-23T12:58:04;4.97;;;1.95;;
23001;SDS011;11667;51.706;4.856;2023-05-23T13:00:34;6.83;;;1.98;;
23001;SDS011;11667;51.706;4.856;2023-05-23T13:03:04;7.55;;;2.25;;
23001;SDS011;11667;51.706;4.856;2023-05-23T13:05:33;6.87;;;1.70;;
23001;SDS011;11667;51.706;4.856;2023-05-23T13:08:03;7.45;;;2.08;;
23001;SDS011;11667;51.706;4.856;2023-05-23T13:10:33;7.12;;;2.20;;
23001;SDS011;11667;51.706;4.856;2023-05-23T13:13:02;6.25;;;2.10;;
23001;SDS011;11667;51.706;4.856;2023-05-23T13:15:32;7.97;;;2.15;;
23001;SDS011;11667;51.706;4.856;2023-05-23T13:18:01;7.95;;;2.00;;
23001;SDS011;11667;51.706;4.856;2023-05-23T13:20:32;8.83;;;2.25;;
23001;SDS011;11667;51.706;4.856;2023-05-23T13:23:01;5.65;;;2.08;;
23001;SDS011;11667;51.706;4.856;2023-05-23T13:25:30;6.10;;;2.00;;
23001;SDS011;11667;51.706;4.856;2023-05-23T13:28:00;6.60;;;2.00;;
23001;SDS011;11667;51.706;4.856;2023-05-23T13:30:30;6.72;;;2.10;;
23001;SDS011;11667;51.706;4.856;2023-05-23T13:32:59;8.78;;;2.17;;
23001;SDS011;11667;51.706;4.856;2023-05-23T13:35:29;7.33;;;2.10;;
23001;SDS011;11667;51.706;4.856;2023-05-23T13:37:58;7.65;;;2.00;;
23001;SDS011;11667;51.706;4.856;2023-05-23T13:40:28;7.00;;;2.08;;
23001;SDS011;11667;51.706;4.856;2023-05-23T13:42:57;8.00;;;2.40;;
23001;SDS011;11667;51.706;4.856;2023-05-23T13:45:27;6.33;;;1.72;;
23001;SDS011;11667;51.706;4.856;2023-05-23T13:47:57;5.12;;;2.00;;
23001;SDS011;11667;51.706;4.856;2023-05-23T13:50:27;5.83;;;2.27;;
23001;SDS011;11667;51.706;4.856;2023-05-23T13:52:57;7.87;;;2.30;;
23001;SDS011;11667;51.706;4.856;2023-05-23T13:55:26;10.48;;;2.30;;
23001;SDS011;11667;51.706;4.856;2023-05-23T13:57:56;5.78;;;1.87;;
23001;SDS011;11667;51.706;4.856;2023-05-23T14:00:25;6.70;;;2.00;;
23001;SDS011;11667;51.706;4.856;2023-05-23T14:02:54;6.08;;;1.75;;
23001;SDS011;11667;51.706;4.856;2023-05-23T14:05:24;8.80;;;1.90;;
23001;SDS011;11667;51.706;4.856;2023-05-23T14:07:53;5.90;;;1.82;;
23001;SDS011;11667;51.706;4.856;2023-05-23T14:10:23;9.50;;;2.35;;
23001;SDS011;11667;51.706;4.856;2023-05-23T14:12:53;7.95;;;2.33;;
23001;SDS011;11667;51.706;4.856;2023-05-23T14:15:23;6.70;;;1.90;;
23001;SDS011;11667;51.706;4.856;2023-05-23T14:17:54;8.90;;;1.92;;
23001;SDS011;11667;51.706;4.856;2023-05-23T14:20:23;8.65;;;2.10;;
23001;SDS011;11667;51.706;4.856;2023-05-23T14:22:53;6.25;;;2.00;;
23001;SDS011;11667;51.706;4.856;2023-05-23T14:25:22;7.45;;;2.00;;
23001;SDS011;11667;51.706;4.856;2023-05-23T14:27:52;6.78;;;1.80;;
23001;SDS011;11667;51.706;4.856;2023-05-23T14:30:21;8.70;;;1.95;;
23001;SDS011;11667;51.706;4.856;2023-05-23T14:32:51;5.12;;;1.72;;
23001;SDS011;11667;51.706;4.856;2023-05-23T14:35:21;6.92;;;1.90;;
23001;SDS011;11667;51.706;4.856;2023-05-23T14:37:52;7.05;;;2.10;;
23001;SDS011;11667;51.706;4.856;2023-05-23T14:40:21;9.10;;;2.15;;
23001;SDS011;11667;51.706;4.856;2023-05-23T14:42:51;10.10;;;1.87;;
23001;SDS011;11667;51.706;4.856;2023-05-23T14:45:20;12.93;;;2.30;;
23001;SDS011;11667;51.706;4.856;2023-05-23T14:47:50;14.47;;;2.55;;
23001;SDS011;11667;51.706;4.856;2023-05-23T14:50:19;8.30;;;2.20;;
23001;SDS011;11667;51.706;4.856;2023-05-23T14:52:48;9.75;;;2.47;;
23001;SDS011;11667;51.706;4.856;2023-05-23T14:55:18;7.37;;;1.98;;
23001;SDS011;11667;51.706;4.856;2023-05-23T14:57:47;8.45;;;2.15;;
23001;SDS011;11667;51.706;4.856;2023-05-23T15:00:17;8.63;;;1.90;;
23001;SDS011;11667;51.706;4.856;2023-05-23T15:02:47;7.45;;;2.10;;
23001;SDS011;11667;51.706;4.856;2023-05-23T15:05:16;10.48;;;2.37;;
23001;SDS011;11667;51.706;4.856;2023-05-23T15:07:47;6.37;;;2.22;;
23001;SDS011;11667;51.706;4.856;2023-05-23T15:10:16;9.30;;;2.30;;
23001;SDS011;11667;51.706;4.856;2023-05-23T15:12:46;9.75;;;2.00;;
23001;SDS011;11667;51.706;4.856;2023-05-23T15:15:15;9.05;;;2.08;;
23001;SDS011;11667;51.706;4.856;2023-05-23T15:17:46;7.80;;;2.25;;
23001;SDS011;11667;51.706;4.856;2023-05-23T15:20:16;6.70;;;2.12;;
23001;SDS011;11667;51.706;4.856;2023-05-23T15:22:45;7.85;;;2.37;;
23001;SDS011;11667;51.706;4.856;2023-05-23T15:25:15;9.33;;;2.33;;
23001;SDS011;11667;51.706;4.856;2023-05-23T15:27:46;7.15;;;1.70;;